Main page
METAR-TAF:

METAR-TAF

Airports :

RAF Odiham

Odiham, England

latitude: 51-14N, longitude: 000-57W, elevation: 123 m

Current weather observation

The report was made 56 minutes ago, at 04:20 UTC
Wind 2 kt from the East/Southeast
Temperature 13°C
Humidity 94%
Pressure 1020 hPa
Visibility 10 km or more

METAR: EGVO 180420Z AUTO 11002KT 9999 OVC180/// 13/12 Q1020

Time: 06:16 (05:16 UTC)

Forecast

The report was made 6 hours and 49 minutes ago, at 22:27 UTC
Forecast valid from 18 at 00 UTC to 18 at 12 UTC
Wind 6 kt from the South
Visibility 10 km or more
no clouds below 1500 m and no cumulonimbus
Probability 40%
from 18 at 01 UTC to 18 at 08 UTC
Visibility: 6000 m
mist,

TAF: EGVO 172227Z 1800/1812 17006KT CAVOK PROB40 1801/1808 6000 BR

Weather observations and forecasts of more than 4000 airports (METAR and TAF reports).

The available stations are represented by yellow and red dots on the map.

Hover mouse over dot to see the name of the station.

Then click to see weather observations and forecasts.

To change the map : click on the green buttons with a black cross to zoom in, on the green button with a dash to zoom out, or on the green arrows for adjacent maps.


METAR-TAF: